Terminal Aerodrome Forecast
Issued by NWS

Home | Current Version | Previous Version | Text Only | Print | Product List | Glossary On
Versions: 1 2 3 4 5 6 7 8 9 10 11 12 13 14
000
FTUS45 KRIW 011720
TAFWRL
TAF
KWRL 011720Z 0118/0218 04007KT P6SM FEW100
     FM012100 VRB10G15KT P6SM VCTS SCT070CB BKN110
     FM020200 33006KT P6SM FEW110
     FM021300 VRB05KT P6SM SKC=

USA.gov is the U.S. government's official web portal to all federal, state and local government web resources and services.